sensor_id;sensor_type;location;lat;lon;timestamp;temperature;humidity
36548;DHT22;22551;52.206;4.856;2022-11-30T00:09:46;6.90;99.90
36548;DHT22;22551;52.206;4.856;2022-11-30T00:14:48;6.90;99.90
36548;DHT22;22551;52.206;4.856;2022-11-30T00:19:51;6.90;99.90
36548;DHT22;22551;52.206;4.856;2022-11-30T00:24:54;6.90;99.90
36548;DHT22;22551;52.206;4.856;2022-11-30T00:29:59;6.90;99.90
36548;DHT22;22551;52.206;4.856;2022-11-30T00:35:03;6.90;99.90
36548;DHT22;22551;52.206;4.856;2022-11-30T00:40:06;6.90;99.90
36548;DHT22;22551;52.206;4.856;2022-11-30T00:45:09;6.90;99.90
36548;DHT22;22551;52.206;4.856;2022-11-30T00:50:13;6.80;99.90
36548;DHT22;22551;52.206;4.856;2022-11-30T00:55:15;6.80;99.90
36548;DHT22;22551;52.206;4.856;2022-11-30T01:00:18;6.80;99.90
36548;DHT22;22551;52.206;4.856;2022-11-30T01:05:22;6.80;99.90
36548;DHT22;22551;52.206;4.856;2022-11-30T01:10:24;6.90;99.90
36548;DHT22;22551;52.206;4.856;2022-11-30T01:15:26;6.90;99.90
36548;DHT22;22551;52.206;4.856;2022-11-30T01:20:30;7.00;99.90
36548;DHT22;22551;52.206;4.856;2022-11-30T01:25:32;7.00;99.90
36548;DHT22;22551;52.206;4.856;2022-11-30T01:30:34;7.00;99.90
36548;DHT22;22551;52.206;4.856;2022-11-30T01:35:37;7.00;99.90
36548;DHT22;22551;52.206;4.856;2022-11-30T01:40:40;7.00;99.90
36548;DHT22;22551;52.206;4.856;2022-11-30T01:45:50;7.00;99.90
36548;DHT22;22551;52.206;4.856;2022-11-30T01:50:54;7.00;99.90
36548;DHT22;22551;52.206;4.856;2022-11-30T01:55:57;7.10;99.90
36548;DHT22;22551;52.206;4.856;2022-11-30T02:00:59;7.00;99.90
36548;DHT22;22551;52.206;4.856;2022-11-30T02:06:03;7.00;99.90
36548;DHT22;22551;52.206;4.856;2022-11-30T02:11:11;7.10;99.90
36548;DHT22;22551;52.206;4.856;2022-11-30T02:16:21;7.10;99.90
36548;DHT22;22551;52.206;4.856;2022-11-30T02:21:34;7.10;99.90
36548;DHT22;22551;52.206;4.856;2022-11-30T02:26:55;7.20;99.90
36548;DHT22;22551;52.206;4.856;2022-11-30T02:32:08;7.10;99.90
36548;DHT22;22551;52.206;4.856;2022-11-30T02:37:13;7.10;99.90
36548;DHT22;22551;52.206;4.856;2022-11-30T02:42:16;7.00;99.90
36548;DHT22;22551;52.206;4.856;2022-11-30T02:47:23;6.90;99.90
36548;DHT22;22551;52.206;4.856;2022-11-30T02:52:29;6.90;99.90
36548;DHT22;22551;52.206;4.856;2022-11-30T02:57:33;6.80;99.90
36548;DHT22;22551;52.206;4.856;2022-11-30T03:02:36;6.80;99.90
36548;DHT22;22551;52.206;4.856;2022-11-30T03:07:39;6.70;99.90
36548;DHT22;22551;52.206;4.856;2022-11-30T03:12:41;6.60;99.90
36548;DHT22;22551;52.206;4.856;2022-11-30T03:17:45;6.60;99.90
36548;DHT22;22551;52.206;4.856;2022-11-30T03:22:58;6.70;99.90
36548;DHT22;22551;52.206;4.856;2022-11-30T03:28:01;6.70;99.90
36548;DHT22;22551;52.206;4.856;2022-11-30T03:33:05;6.70;99.90
36548;DHT22;22551;52.206;4.856;2022-11-30T03:38:07;6.70;99.90
36548;DHT22;22551;52.206;4.856;2022-11-30T03:43:09;6.80;99.90
36548;DHT22;22551;52.206;4.856;2022-11-30T03:48:12;6.90;99.90
36548;DHT22;22551;52.206;4.856;2022-11-30T03:53:15;6.90;99.90
36548;DHT22;22551;52.206;4.856;2022-11-30T03:58:17;6.90;99.90
36548;DHT22;22551;52.206;4.856;2022-11-30T04:03:21;6.90;99.90
36548;DHT22;22551;52.206;4.856;2022-11-30T04:08:24;7.00;99.90
36548;DHT22;22551;52.206;4.856;2022-11-30T04:13:27;7.00;99.90
36548;DHT22;22551;52.206;4.856;2022-11-30T04:18:32;7.00;99.90
36548;DHT22;22551;52.206;4.856;2022-11-30T04:23:37;7.00;99.90
36548;DHT22;22551;52.206;4.856;2022-11-30T04:28:40;7.00;99.90
36548;DHT22;22551;52.206;4.856;2022-11-30T04:33:44;7.00;99.90
36548;DHT22;22551;52.206;4.856;2022-11-30T04:38:46;7.00;99.90
36548;DHT22;22551;52.206;4.856;2022-11-30T04:43:48;7.00;99.90
36548;DHT22;22551;52.206;4.856;2022-11-30T04:48:52;7.00;99.90
36548;DHT22;22551;52.206;4.856;2022-11-30T04:53:54;7.00;99.90
36548;DHT22;22551;52.206;4.856;2022-11-30T04:58:56;7.10;99.90
36548;DHT22;22551;52.206;4.856;2022-11-30T05:03:59;7.00;99.90
36548;DHT22;22551;52.206;4.856;2022-11-30T05:09:02;7.10;99.90
36548;DHT22;22551;52.206;4.856;2022-11-30T05:14:04;7.10;99.90
36548;DHT22;22551;52.206;4.856;2022-11-30T05:19:07;7.10;99.90
36548;DHT22;22551;52.206;4.856;2022-11-30T05:24:10;7.10;99.90
36548;DHT22;22551;52.206;4.856;2022-11-30T05:29:12;7.10;99.90
36548;DHT22;22551;52.206;4.856;2022-11-30T05:34:15;7.00;99.90
36548;DHT22;22551;52.206;4.856;2022-11-30T05:39:17;7.00;99.90
36548;DHT22;22551;52.206;4.856;2022-11-30T05:44:20;7.00;99.90
36548;DHT22;22551;52.206;4.856;2022-11-30T05:49:23;7.00;99.90
36548;DHT22;22551;52.206;4.856;2022-11-30T05:54:25;7.00;99.90
36548;DHT22;22551;52.206;4.856;2022-11-30T05:59:28;7.00;99.90
36548;DHT22;22551;52.206;4.856;2022-11-30T06:04:33;7.00;99.90
36548;DHT22;22551;52.206;4.856;2022-11-30T06:09:36;7.00;99.90
36548;DHT22;22551;52.206;4.856;2022-11-30T06:14:38;7.00;99.90
36548;DHT22;22551;52.206;4.856;2022-11-30T06:19:42;6.90;99.90
36548;DHT22;22551;52.206;4.856;2022-11-30T06:24:44;6.80;99.90
36548;DHT22;22551;52.206;4.856;2022-11-30T06:29:46;6.70;99.90
36548;DHT22;22551;52.206;4.856;2022-11-30T06:34:49;6.60;99.90
36548;DHT22;22551;52.206;4.856;2022-11-30T06:39:52;6.60;99.90
36548;DHT22;22551;52.206;4.856;2022-11-30T06:44:54;6.60;99.90
36548;DHT22;22551;52.206;4.856;2022-11-30T06:49:57;6.60;99.90
36548;DHT22;22551;52.206;4.856;2022-11-30T06:55:00;6.50;99.90
36548;DHT22;22551;52.206;4.856;2022-11-30T07:00:03;6.50;99.90
36548;DHT22;22551;52.206;4.856;2022-11-30T07:05:08;6.40;99.90
36548;DHT22;22551;52.206;4.856;2022-11-30T07:10:10;6.40;99.90
36548;DHT22;22551;52.206;4.856;2022-11-30T07:15:12;6.40;99.90
36548;DHT22;22551;52.206;4.856;2022-11-30T07:20:16;6.50;99.90
36548;DHT22;22551;52.206;4.856;2022-11-30T07:25:18;6.50;99.90
36548;DHT22;22551;52.206;4.856;2022-11-30T07:30:38;6.50;99.90
36548;DHT22;22551;52.206;4.856;2022-11-30T07:35:42;6.50;99.90
36548;DHT22;22551;52.206;4.856;2022-11-30T07:40:44;6.40;99.90
36548;DHT22;22551;52.206;4.856;2022-11-30T07:45:50;6.40;99.90
36548;DHT22;22551;52.206;4.856;2022-11-30T07:51:00;6.30;99.90
36548;DHT22;22551;52.206;4.856;2022-11-30T07:56:04;6.30;99.90
36548;DHT22;22551;52.206;4.856;2022-11-30T08:01:09;6.30;99.90
36548;DHT22;22551;52.206;4.856;2022-11-30T08:06:15;6.20;99.90
36548;DHT22;22551;52.206;4.856;2022-11-30T08:11:22;6.30;99.90
36548;DHT22;22551;52.206;4.856;2022-11-30T08:16:28;6.40;99.90
36548;DHT22;22551;52.206;4.856;2022-11-30T08:21:32;6.40;99.90
36548;DHT22;22551;52.206;4.856;2022-11-30T08:26:34;6.50;99.90
36548;DHT22;22551;52.206;4.856;2022-11-30T08:31:36;6.60;99.90
36548;DHT22;22551;52.206;4.856;2022-11-30T08:36:40;6.70;99.90
36548;DHT22;22551;52.206;4.856;2022-11-30T08:41:43;6.70;99.90
36548;DHT22;22551;52.206;4.856;2022-11-30T08:46:46;6.80;99.90
36548;DHT22;22551;52.206;4.856;2022-11-30T08:51:51;6.90;99.90
36548;DHT22;22551;52.206;4.856;2022-11-30T08:56:53;7.00;99.90
36548;DHT22;22551;52.206;4.856;2022-11-30T09:01:55;7.10;99.90
36548;DHT22;22551;52.206;4.856;2022-11-30T09:06:59;7.20;99.90
36548;DHT22;22551;52.206;4.856;2022-11-30T09:12:01;7.30;99.90
36548;DHT22;22551;52.206;4.856;2022-11-30T09:17:04;7.30;99.90
36548;DHT22;22551;52.206;4.856;2022-11-30T09:22:07;7.40;99.90
36548;DHT22;22551;52.206;4.856;2022-11-30T09:27:09;7.40;99.90
36548;DHT22;22551;52.206;4.856;2022-11-30T09:32:12;7.50;99.90
36548;DHT22;22551;52.206;4.856;2022-11-30T09:37:15;7.50;99.90
36548;DHT22;22551;52.206;4.856;2022-11-30T09:42:37;7.60;99.90
36548;DHT22;22551;52.206;4.856;2022-11-30T09:47:54;7.60;99.90
36548;DHT22;22551;52.206;4.856;2022-11-30T09:53:13;7.70;99.90
36548;DHT22;22551;52.206;4.856;2022-11-30T09:58:28;7.80;99.90
36548;DHT22;22551;52.206;4.856;2022-11-30T10:03:37;7.80;99.90
36548;DHT22;22551;52.206;4.856;2022-11-30T10:08:52;7.80;99.90
36548;DHT22;22551;52.206;4.856;2022-11-30T10:14:17;7.90;99.90
36548;DHT22;22551;52.206;4.856;2022-11-30T10:19:41;8.10;99.90
36548;DHT22;22551;52.206;4.856;2022-11-30T10:25:05;8.20;99.90
36548;DHT22;22551;52.206;4.856;2022-11-30T10:30:17;8.20;99.90
36548;DHT22;22551;52.206;4.856;2022-11-30T10:35:32;8.20;99.90
36548;DHT22;22551;52.206;4.856;2022-11-30T10:40:42;8.30;99.90
36548;DHT22;22551;52.206;4.856;2022-11-30T10:45:47;8.50;99.90
36548;DHT22;22551;52.206;4.856;2022-11-30T10:50:51;8.60;99.90
36548;DHT22;22551;52.206;4.856;2022-11-30T10:56:00;8.80;99.90
36548;DHT22;22551;52.206;4.856;2022-11-30T11:01:06;8.90;99.90
36548;DHT22;22551;52.206;4.856;2022-11-30T11:06:14;8.80;99.90
36548;DHT22;22551;52.206;4.856;2022-11-30T11:11:34;8.90;99.90
36548;DHT22;22551;52.206;4.856;2022-11-30T11:16:52;8.70;99.90
36548;DHT22;22551;52.206;4.856;2022-11-30T11:21:56;8.40;99.90
36548;DHT22;22551;52.206;4.856;2022-11-30T11:27:00;8.40;99.90
36548;DHT22;22551;52.206;4.856;2022-11-30T11:32:18;8.40;99.90
36548;DHT22;22551;52.206;4.856;2022-11-30T11:37:25;8.60;99.90
36548;DHT22;22551;52.206;4.856;2022-11-30T11:42:35;8.70;99.90
36548;DHT22;22551;52.206;4.856;2022-11-30T11:47:44;8.80;99.90
36548;DHT22;22551;52.206;4.856;2022-11-30T11:52:48;9.00;99.90
36548;DHT22;22551;52.206;4.856;2022-11-30T11:57:56;9.00;99.90
36548;DHT22;22551;52.206;4.856;2022-11-30T12:03:07;9.10;99.90
36548;DHT22;22551;52.206;4.856;2022-11-30T12:08:29;9.10;99.90
36548;DHT22;22551;52.206;4.856;2022-11-30T12:13:40;9.20;99.90
36548;DHT22;22551;52.206;4.856;2022-11-30T12:18:51;9.20;99.90
36548;DHT22;22551;52.206;4.856;2022-11-30T12:24:05;9.20;99.90
36548;DHT22;22551;52.206;4.856;2022-11-30T12:29:37;8.90;99.90
36548;DHT22;22551;52.206;4.856;2022-11-30T12:35:01;8.80;99.90
36548;DHT22;22551;52.206;4.856;2022-11-30T12:40:19;8.90;99.90
36548;DHT22;22551;52.206;4.856;2022-11-30T12:45:34;8.90;99.90
36548;DHT22;22551;52.206;4.856;2022-11-30T12:50:47;8.70;99.90
36548;DHT22;22551;52.206;4.856;2022-11-30T12:56:04;8.80;99.90
36548;DHT22;22551;52.206;4.856;2022-11-30T13:01:27;8.60;99.90
36548;DHT22;22551;52.206;4.856;2022-11-30T13:06:40;8.60;99.90
36548;DHT22;22551;52.206;4.856;2022-11-30T13:11:48;8.60;99.90
36548;DHT22;22551;52.206;4.856;2022-11-30T13:16:59;8.40;99.90
36548;DHT22;22551;52.206;4.856;2022-11-30T13:22:08;8.20;99.90
36548;DHT22;22551;52.206;4.856;2022-11-30T13:27:17;8.20;99.90
36548;DHT22;22551;52.206;4.856;2022-11-30T13:32:24;8.30;99.90
36548;DHT22;22551;52.206;4.856;2022-11-30T13:37:26;8.50;99.90
36548;DHT22;22551;52.206;4.856;2022-11-30T13:42:35;8.80;99.90
36548;DHT22;22551;52.206;4.856;2022-11-30T13:47:43;8.90;99.90
36548;DHT22;22551;52.206;4.856;2022-11-30T13:53:08;9.00;99.90
36548;DHT22;22551;52.206;4.856;2022-11-30T13:58:23;9.00;99.90
36548;DHT22;22551;52.206;4.856;2022-11-30T14:03:27;9.00;99.90
36548;DHT22;22551;52.206;4.856;2022-11-30T14:08:35;8.90;99.90
36548;DHT22;22551;52.206;4.856;2022-11-30T14:13:38;8.70;99.90
36548;DHT22;22551;52.206;4.856;2022-11-30T14:18:43;8.50;99.90
36548;DHT22;22551;52.206;4.856;2022-11-30T14:23:53;8.40;99.90
36548;DHT22;22551;52.206;4.856;2022-11-30T14:29:02;8.10;99.90
36548;DHT22;22551;52.206;4.856;2022-11-30T14:34:09;8.00;99.90
36548;DHT22;22551;52.206;4.856;2022-11-30T14:39:23;7.90;99.90
36548;DHT22;22551;52.206;4.856;2022-11-30T14:44:27;7.80;99.90
36548;DHT22;22551;52.206;4.856;2022-11-30T14:49:44;7.60;99.90
36548;DHT22;22551;52.206;4.856;2022-11-30T14:54:51;7.60;99.90
36548;DHT22;22551;52.206;4.856;2022-11-30T14:59:57;7.40;99.90
36548;DHT22;22551;52.206;4.856;2022-11-30T15:05:01;7.30;99.90
36548;DHT22;22551;52.206;4.856;2022-11-30T15:10:09;7.20;99.90
36548;DHT22;22551;52.206;4.856;2022-11-30T15:15:16;7.20;99.90
36548;DHT22;22551;52.206;4.856;2022-11-30T15:20:26;7.10;99.90
36548;DHT22;22551;52.206;4.856;2022-11-30T15:25:37;7.10;99.90
36548;DHT22;22551;52.206;4.856;2022-11-30T15:30:44;6.90;99.90
36548;DHT22;22551;52.206;4.856;2022-11-30T15:35:50;6.90;99.90
36548;DHT22;22551;52.206;4.856;2022-11-30T15:41:00;6.80;99.90
36548;DHT22;22551;52.206;4.856;2022-11-30T15:51:37;6.60;99.90
36548;DHT22;22551;52.206;4.856;2022-11-30T15:56:40;6.50;99.90
36548;DHT22;22551;52.206;4.856;2022-11-30T16:01:55;6.50;99.90
36548;DHT22;22551;52.206;4.856;2022-11-30T16:07:15;6.30;99.90
36548;DHT22;22551;52.206;4.856;2022-11-30T16:12:28;6.30;99.90
36548;DHT22;22551;52.206;4.856;2022-11-30T16:17:31;6.20;99.90
36548;DHT22;22551;52.206;4.856;2022-11-30T16:22:36;6.10;99.90
36548;DHT22;22551;52.206;4.856;2022-11-30T16:27:39;6.10;99.90
36548;DHT22;22551;52.206;4.856;2022-11-30T16:32:42;6.00;99.90
36548;DHT22;22551;52.206;4.856;2022-11-30T16:37:46;5.90;99.90
36548;DHT22;22551;52.206;4.856;2022-11-30T16:42:48;5.90;99.90
36548;DHT22;22551;52.206;4.856;2022-11-30T16:47:53;5.80;99.90
36548;DHT22;22551;52.206;4.856;2022-11-30T16:52:56;5.60;99.90
36548;DHT22;22551;52.206;4.856;2022-11-30T16:57:58;5.60;99.90
36548;DHT22;22551;52.206;4.856;2022-11-30T17:03:04;5.40;99.90
36548;DHT22;22551;52.206;4.856;2022-11-30T17:08:10;5.30;99.90
36548;DHT22;22551;52.206;4.856;2022-11-30T17:13:13;5.10;99.90
36548;DHT22;22551;52.206;4.856;2022-11-30T17:18:17;5.00;99.90
36548;DHT22;22551;52.206;4.856;2022-11-30T17:23:20;4.90;99.90
36548;DHT22;22551;52.206;4.856;2022-11-30T17:28:23;4.70;99.90
36548;DHT22;22551;52.206;4.856;2022-11-30T17:33:30;4.70;99.90
36548;DHT22;22551;52.206;4.856;2022-11-30T17:38:35;4.70;99.90
36548;DHT22;22551;52.206;4.856;2022-11-30T17:43:38;4.60;99.90
36548;DHT22;22551;52.206;4.856;2022-11-30T17:48:40;4.60;99.90
36548;DHT22;22551;52.206;4.856;2022-11-30T17:53:44;4.60;99.90
36548;DHT22;22551;52.206;4.856;2022-11-30T17:58:47;4.50;99.90
36548;DHT22;22551;52.206;4.856;2022-11-30T18:03:50;4.60;99.90
36548;DHT22;22551;52.206;4.856;2022-11-30T18:08:55;4.50;99.90
36548;DHT22;22551;52.206;4.856;2022-11-30T18:13:59;4.50;99.90
36548;DHT22;22551;52.206;4.856;2022-11-30T18:19:04;4.50;99.90
36548;DHT22;22551;52.206;4.856;2022-11-30T18:24:12;4.40;99.90
36548;DHT22;22551;52.206;4.856;2022-11-30T18:29:15;4.40;99.90
36548;DHT22;22551;52.206;4.856;2022-11-30T18:34:17;4.50;99.90
36548;DHT22;22551;52.206;4.856;2022-11-30T18:39:20;4.60;99.90
36548;DHT22;22551;52.206;4.856;2022-11-30T18:44:23;4.70;99.90
36548;DHT22;22551;52.206;4.856;2022-11-30T18:49:25;4.80;99.90
36548;DHT22;22551;52.206;4.856;2022-11-30T18:54:28;4.80;99.90
36548;DHT22;22551;52.206;4.856;2022-11-30T18:59:33;4.80;99.90
36548;DHT22;22551;52.206;4.856;2022-11-30T19:04:36;4.80;99.90
36548;DHT22;22551;52.206;4.856;2022-11-30T19:09:42;4.80;99.90
36548;DHT22;22551;52.206;4.856;2022-11-30T19:14:45;5.00;99.90
36548;DHT22;22551;52.206;4.856;2022-11-30T19:19:48;5.10;99.90
36548;DHT22;22551;52.206;4.856;2022-11-30T19:24:54;5.10;99.90
36548;DHT22;22551;52.206;4.856;2022-11-30T19:29:56;5.20;99.90
36548;DHT22;22551;52.206;4.856;2022-11-30T19:34:59;5.20;99.90
36548;DHT22;22551;52.206;4.856;2022-11-30T19:40:03;5.20;99.90
36548;DHT22;22551;52.206;4.856;2022-11-30T19:45:08;5.20;99.90
36548;DHT22;22551;52.206;4.856;2022-11-30T19:50:11;5.30;99.90
36548;DHT22;22551;52.206;4.856;2022-11-30T19:55:15;5.40;99.90
36548;DHT22;22551;52.206;4.856;2022-11-30T20:00:18;5.40;99.90
36548;DHT22;22551;52.206;4.856;2022-11-30T20:05:20;5.30;99.90
36548;DHT22;22551;52.206;4.856;2022-11-30T20:10:24;5.30;99.90
36548;DHT22;22551;52.206;4.856;2022-11-30T20:15:26;5.30;99.90
36548;DHT22;22551;52.206;4.856;2022-11-30T20:20:28;5.20;99.90
36548;DHT22;22551;52.206;4.856;2022-11-30T20:25:34;5.20;99.90
36548;DHT22;22551;52.206;4.856;2022-11-30T20:30:35;5.10;99.90
36548;DHT22;22551;52.206;4.856;2022-11-30T20:35:38;5.00;99.90
36548;DHT22;22551;52.206;4.856;2022-11-30T20:40:45;5.00;99.90
36548;DHT22;22551;52.206;4.856;2022-11-30T20:45:48;5.00;99.90
36548;DHT22;22551;52.206;4.856;2022-11-30T20:50:50;5.10;99.90
36548;DHT22;22551;52.206;4.856;2022-11-30T20:55:54;5.20;99.90
36548;DHT22;22551;52.206;4.856;2022-11-30T21:00:56;5.30;99.90
36548;DHT22;22551;52.206;4.856;2022-11-30T21:05:59;5.40;99.90
36548;DHT22;22551;52.206;4.856;2022-11-30T21:11:05;5.50;99.90
36548;DHT22;22551;52.206;4.856;2022-11-30T21:16:12;5.50;99.90
36548;DHT22;22551;52.206;4.856;2022-11-30T21:21:18;5.60;99.90
36548;DHT22;22551;52.206;4.856;2022-11-30T21:26:24;5.70;99.90
36548;DHT22;22551;52.206;4.856;2022-11-30T21:31:27;5.70;99.90
36548;DHT22;22551;52.206;4.856;2022-11-30T21:36:30;5.70;99.90
36548;DHT22;22551;52.206;4.856;2022-11-30T21:41:35;5.70;99.90
36548;DHT22;22551;52.206;4.856;2022-11-30T21:46:38;5.60;99.90
36548;DHT22;22551;52.206;4.856;2022-11-30T21:51:40;5.50;99.90
36548;DHT22;22551;52.206;4.856;2022-11-30T21:56:45;5.50;99.90
36548;DHT22;22551;52.206;4.856;2022-11-30T22:01:51;5.40;99.90
36548;DHT22;22551;52.206;4.856;2022-11-30T22:06:53;5.40;99.90
36548;DHT22;22551;52.206;4.856;2022-11-30T22:11:57;5.30;99.90
36548;DHT22;22551;52.206;4.856;2022-11-30T22:16:59;5.20;99.90
36548;DHT22;22551;52.206;4.856;2022-11-30T22:22:01;5.10;99.90
36548;DHT22;22551;52.206;4.856;2022-11-30T22:27:05;5.00;99.90
36548;DHT22;22551;52.206;4.856;2022-11-30T22:32:07;5.00;99.90
36548;DHT22;22551;52.206;4.856;2022-11-30T22:37:09;4.90;99.90
36548;DHT22;22551;52.206;4.856;2022-11-30T22:42:13;4.80;99.90
36548;DHT22;22551;52.206;4.856;2022-11-30T22:47:15;4.70;99.90
36548;DHT22;22551;52.206;4.856;2022-11-30T22:52:17;4.60;99.90
36548;DHT22;22551;52.206;4.856;2022-11-30T22:57:21;4.50;99.90
36548;DHT22;22551;52.206;4.856;2022-11-30T23:02:24;4.30;99.90
36548;DHT22;22551;52.206;4.856;2022-11-30T23:07:26;4.20;99.90
36548;DHT22;22551;52.206;4.856;2022-11-30T23:12:29;4.30;99.90
36548;DHT22;22551;52.206;4.856;2022-11-30T23:17:31;4.20;99.90
36548;DHT22;22551;52.206;4.856;2022-11-30T23:22:36;4.10;99.90
36548;DHT22;22551;52.206;4.856;2022-11-30T23:27:39;4.20;99.90
36548;DHT22;22551;52.206;4.856;2022-11-30T23:32:42;4.10;99.90
36548;DHT22;22551;52.206;4.856;2022-11-30T23:37:45;4.10;99.90
36548;DHT22;22551;52.206;4.856;2022-11-30T23:42:49;4.20;99.90
36548;DHT22;22551;52.206;4.856;2022-11-30T23:47:51;4.20;99.90
36548;DHT22;22551;52.206;4.856;2022-11-30T23:52:53;4.20;99.90
36548;DHT22;22551;52.206;4.856;2022-11-30T23:57:56;4.10;99.90
